IZ5MMH-3 Weather Reports


time (UTC)temp
C
wind
direction
speed
KPH
gust
KPH
rain 1hr
cm
rain 24hr
cm
rain mn
cm
humidity
%
barometer
mb
20260503181217 18 0.0 0.0 0.00 0.00 0.00 64 1018.9
20260503180217 19 0.0 0.0 0.00 0.00 0.00 62 1018.7
20260503175217 20 0.0 0.0 0.00 0.00 0.00 60 1018.7
20260503174217 20 0.0 0.0 0.00 0.00 0.00 57 1018.5
20260503173217 20 0.0 0.0 0.00 0.00 0.00 57 1018.6
20260503172217 21 0.0 0.0 0.00 0.00 0.00 55 1018.6
20260503171217 22 0.0 0.0 0.00 0.00 0.00 52 1018.5
20260503170217 24 0.0 0.0 0.00 0.00 0.00 46 1018.7
20260503160217 25 0.0 0.0 0.00 0.00 0.00 41 1018.6
20260503150217 26 0.0 0.0 0.00 0.00 0.00 32 1018.8
20260503140217 26 0.0 0.0 0.00 0.00 0.00 38 1019.5
20260503131217 25 0.0 0.0 0.00 0.00 0.00 42 1020.2
20260503130217 25 0.0 0.0 0.00 0.00 0.00 42 1020.3
20260503120216 23 0.0 0.0 0.00 0.00 0.00 47 1021.1
20260503110216 22 0.0 0.0 0.00 0.00 0.00 54 1021.0
20260503100216 21 0.0 0.0 0.00 0.00 0.00 48 1021.3
20260503090216 21 0.0 0.0 0.00 0.00 0.00 51 1021.2
20260503081216 20 0.0 0.0 0.00 0.00 0.00 55 1020.7
20260503080216 20 0.0 0.0 0.00 0.00 0.00 58 1020.8
20260503072216 18 0.0 0.0 0.00 0.00 0.00 65 1021.0
20260503071217 17 0.0 0.0 0.00 0.00 0.00 65 1021.0
20260503070217 17 0.0 0.0 0.00 0.00 0.00 66 1021.0
20260503060216 13 0.0 0.0 0.00 0.00 0.00 72 1021.2
20260503054216 12 0.0 0.0 0.00 0.00 0.00 74 1021.2
20260503053216 11 0.0 0.0 0.00 0.00 0.00 75 1021.2
20260503052217 11 0.0 0.0 0.00 0.00 0.00 75 1021.1
20260503051217 11 0.0 0.0 0.00 0.00 0.00 75 1021.2
20260503050216 10 0.0 0.0 0.00 0.00 0.00 76 1021.2
20260503045217 10 0.0 0.0 0.00 0.00 0.00 77 1021.1
20260503044216 10 0.0 0.0 0.00 0.00 0.00 77 1021.1
20260503043216 10 0.0 0.0 0.00 0.00 0.00 77 1021.1
20260503042216 10 0.0 0.0 0.00 0.00 0.00 76 1021.0
20260503041216 10 0.0 0.0 0.00 0.00 0.00 76 1020.9
20260503040216 10 0.0 0.0 0.00 0.00 0.00 76 1020.9
20260503035216 10 0.0 0.0 0.00 0.00 0.00 75 1020.9
20260503034216 10 0.0 0.0 0.00 0.00 0.00 76 1020.8
20260503033216 10 0.0 0.0 0.00 0.00 0.00 75 1020.7
20260503032216 10 0.0 0.0 0.00 0.00 0.00 74 1020.8
20260503031216 10 0.0 0.0 0.00 0.00 0.00 75 1020.7
20260503030216 10 0.0 0.0 0.00 0.00 0.00 73 1020.8
20260503025216 11 0.0 0.0 0.00 0.00 0.00 74 1020.9
20260503024216 10 0.0 0.0 0.00 0.00 0.00 72 1020.9
20260503023216 11 0.0 0.0 0.00 0.00 0.00 72 1020.8
20260503022216 11 0.0 0.0 0.00 0.00 0.00 72 1020.8
20260503021216 11 0.0 0.0 0.00 0.00 0.00 73 1020.8
20260503020217 11 0.0 0.0 0.00 0.00 0.00 71 1020.8
20260503015216 11 0.0 0.0 0.00 0.00 0.00 71 1020.9
20260503014217 11 0.0 0.0 0.00 0.00 0.00 71 1021.0
20260503013216 11 0.0 0.0 0.00 0.00 0.00 71 1021.1
20260503012216 11 0.0 0.0 0.00 0.00 0.00 70 1021.0
20260503011216 12 0.0 0.0 0.00 0.00 0.00 72 1021.2
20260503010216 12 0.0 0.0 0.00 0.00 0.00 71 1021.1
20260503005216 12 0.0 0.0 0.00 0.00 0.00 71 1021.2
20260503004216 12 0.0 0.0 0.00 0.00 0.00 71 1021.2
20260503003216 12 0.0 0.0 0.00 0.00 0.00 70 1021.3
20260503002216 12 0.0 0.0 0.00 0.00 0.00 69 1021.5
20260503001216 12 0.0 0.0 0.00 0.00 0.00 69 1021.6
20260503000218 12 0.0 0.0 0.00 0.00 0.00 68 1021.5
20260502235216 12 0.0 0.0 0.00 0.00 0.00 67 1021.7
20260502234216 12 0.0 0.0 0.00 0.00 0.00 66 1021.6
20260502233216 12 0.0 0.0 0.00 0.00 0.00 65 1021.7
20260502232216 13 0.0 0.0 0.00 0.00 0.00 64 1021.7
20260502231216 13 0.0 0.0 0.00 0.00 0.00 63 1021.7
20260502230216 13 0.0 0.0 0.00 0.00 0.00 61 1021.9
20260502225216 13 0.0 0.0 0.00 0.00 0.00 59 1022.0
20260502224216 13 0.0 0.0 0.00 0.00 0.00 58 1021.9
20260502223216 13 0.0 0.0 0.00 0.00 0.00 57 1022.0
20260502222216 13 0.0 0.0 0.00 0.00 0.00 57 1022.1
20260502221216 13 0.0 0.0 0.00 0.00 0.00 56 1022.0
20260502220216 14 0.0 0.0 0.00 0.00 0.00 57 1022.0
20260502215216 14 0.0 0.0 0.00 0.00 0.00 57 1021.9
20260502214216 14 0.0 0.0 0.00 0.00 0.00 57 1021.8
20260502213216 14 0.0 0.0 0.00 0.00 0.00 56 1021.7
20260502212216 15 0.0 0.0 0.00 0.00 0.00 55 1021.7
20260502211216 15 0.0 0.0 0.00 0.00 0.00 55 1021.8
20260502210216 15 0.0 0.0 0.00 0.00 0.00 54 1021.7
20260502205216 15 0.0 0.0 0.00 0.00 0.00 53 1021.6
20260502204216 15 0.0 0.0 0.00 0.00 0.00 51 1021.6
20260502203216 15 0.0 0.0 0.00 0.00 0.00 52 1021.7
20260502202216 16 0.0 0.0 0.00 0.00 0.00 52 1021.7
20260502201216 16 0.0 0.0 0.00 0.00 0.00 50 1021.7
20260502200216 16 0.0 0.0 0.00 0.00 0.00 50 1021.8
20260502195216 16 0.0 0.0 0.00 0.00 0.00 51 1021.7
20260502194216 16 0.0 0.0 0.00 0.00 0.00 50 1021.7
20260502193216 16 0.0 0.0 0.00 0.00 0.00 50 1021.7
20260502192216 16 0.0 0.0 0.00 0.00 0.00 51 1021.6
20260502191216 17 0.0 0.0 0.00 0.00 0.00 50 1021.5
20260502190216 17 0.0 0.0 0.00 0.00 0.00 51 1021.5
20260502185216 17 0.0 0.0 0.00 0.00 0.00 51 1021.4
20260502184216 17 0.0 0.0 0.00 0.00 0.00 56 1021.4
20260502183216 18 0.0 0.0 0.00 0.00 0.00 51 1021.3
20260502182216 18 0.0 0.0 0.00 0.00 0.00 50 1021.1